createdAt,value
2024-01-20T00:01:29.412Z,42.05
2024-01-20T00:03:59.438Z,43.10
2024-01-20T00:06:27.142Z,43.00
2024-01-20T00:08:57.440Z,39.15
2024-01-20T00:11:25.206Z,41.87
2024-01-20T00:13:53.752Z,40.67
2024-01-20T00:16:21.877Z,43.83
2024-01-20T00:18:51.533Z,39.83
2024-01-20T00:21:20.772Z,40.78
2024-01-20T00:23:48.751Z,41.35
2024-01-20T00:26:17.615Z,42.70
2024-01-20T00:28:45.694Z,33.10
2024-01-20T00:31:13.968Z,36.58
2024-01-20T00:33:42.713Z,38.88
2024-01-20T00:36:10.942Z,41.85
2024-01-20T00:38:43.485Z,33.55
2024-01-20T00:41:12.543Z,39.97
2024-01-20T00:43:41.520Z,41.80
2024-01-20T00:46:10.034Z,37.75
2024-01-20T00:48:38.494Z,42.67
2024-01-20T00:51:06.592Z,39.17
2024-01-20T00:53:34.487Z,39.45
2024-01-20T00:56:03.917Z,39.00
2024-01-20T00:58:32.509Z,41.00
2024-01-20T01:01:00.280Z,40.47
2024-01-20T01:03:28.050Z,41.70
2024-01-20T01:05:56.548Z,40.63
2024-01-20T01:08:24.620Z,41.47
2024-01-20T01:10:52.526Z,38.00
2024-01-20T01:13:21.585Z,39.85
2024-01-20T01:15:53.966Z,39.40
2024-01-20T01:18:22.001Z,39.00
2024-01-20T01:20:50.558Z,39.88
2024-01-20T01:23:18.358Z,40.97
2024-01-20T01:25:52.550Z,41.03
2024-01-20T01:28:21.718Z,37.40
2024-01-20T01:30:49.839Z,41.07
2024-01-20T01:33:19.009Z,41.30
2024-01-20T01:35:47.115Z,38.17
2024-01-20T01:38:15.640Z,38.58
2024-01-20T01:40:43.350Z,37.08
2024-01-20T01:43:11.554Z,38.55
2024-01-20T01:45:41.276Z,37.08
2024-01-20T01:48:09.597Z,38.13
2024-01-20T01:50:37.762Z,37.50
2024-01-20T01:53:06.656Z,38.28
2024-01-20T01:55:35.947Z,40.23
2024-01-20T01:58:05.554Z,38.22
2024-01-20T02:00:33.526Z,39.88
2024-01-20T02:03:03.592Z,40.47
2024-01-20T02:05:31.253Z,43.28
2024-01-20T02:08:00.548Z,41.22
2024-01-20T02:10:28.440Z,41.13
2024-01-20T02:12:56.554Z,40.23
2024-01-20T02:15:25.311Z,42.40
2024-01-20T02:17:53.674Z,43.30
2024-01-20T02:20:24.153Z,41.77
2024-01-20T02:22:53.266Z,35.15
2024-01-20T02:25:21.607Z,41.72
2024-01-20T02:27:49.425Z,42.72
2024-01-20T02:30:17.142Z,42.75
2024-01-20T02:32:45.684Z,40.27
2024-01-20T02:35:13.508Z,40.30
2024-01-20T02:37:41.608Z,40.72
2024-01-20T02:40:11.404Z,41.45
2024-01-20T02:42:39.098Z,40.33
2024-01-20T02:45:08.671Z,40.47
2024-01-20T02:47:36.431Z,37.20
2024-01-20T02:50:04.717Z,39.55
2024-01-20T02:52:32.440Z,37.85
2024-01-20T02:55:00.695Z,37.03
2024-01-20T02:57:29.887Z,37.85
2024-01-20T02:59:58.646Z,35.17
2024-01-20T03:02:26.352Z,36.85
2024-01-20T03:04:54.633Z,36.17
2024-01-20T03:07:22.322Z,36.03
2024-01-20T03:09:50.632Z,35.40
2024-01-20T03:12:18.305Z,35.40
2024-01-20T03:14:47.626Z,34.67
2024-01-20T03:17:15.281Z,36.60
2024-01-20T03:19:44.007Z,35.67
2024-01-20T03:22:11.748Z,36.80
2024-01-20T03:24:39.735Z,34.88
2024-01-20T03:27:07.551Z,33.67
2024-01-20T03:29:35.660Z,34.92
2024-01-20T03:32:05.041Z,34.90
2024-01-20T03:34:33.014Z,34.67
2024-01-20T03:37:01.666Z,35.80
2024-01-20T03:39:29.373Z,34.67
2024-01-20T03:41:57.693Z,35.05
2024-01-20T03:44:25.703Z,36.00
2024-01-20T03:46:53.683Z,22.42
2024-01-20T03:49:22.888Z,34.80
2024-01-20T03:51:50.855Z,32.42
2024-01-20T03:54:18.569Z,36.42
2024-01-20T03:56:46.690Z,33.03
2024-01-20T03:59:14.332Z,34.65
2024-01-20T04:01:42.683Z,36.22
2024-01-20T04:04:10.916Z,35.40
2024-01-20T04:06:40.724Z,36.70
2024-01-20T04:09:08.583Z,36.13
2024-01-20T04:11:36.382Z,38.05
2024-01-20T04:14:04.700Z,37.45
2024-01-20T04:16:32.695Z,35.80
2024-01-20T04:19:00.870Z,37.27
2024-01-20T04:21:28.697Z,34.63
2024-01-20T04:23:57.817Z,31.98
2024-01-20T04:26:25.729Z,36.75
2024-01-20T04:28:53.390Z,34.03
2024-01-20T04:31:21.168Z,35.63
2024-01-20T04:33:49.796Z,34.63
2024-01-20T04:36:17.529Z,32.10
2024-01-20T04:38:45.361Z,33.83
2024-01-20T04:41:14.706Z,34.72
2024-01-20T04:43:43.179Z,34.27
2024-01-20T04:46:11.725Z,34.20
2024-01-20T04:48:39.516Z,33.03
2024-01-20T04:51:07.739Z,34.72
2024-01-20T04:53:35.763Z,35.92
2024-01-20T04:56:04.698Z,34.55
2024-01-20T04:58:34.757Z,34.20
2024-01-20T05:01:02.735Z,34.30
2024-01-20T05:03:30.779Z,35.22
2024-01-20T05:05:58.563Z,33.03
2024-01-20T05:08:27.745Z,34.88
2024-01-20T05:10:55.423Z,32.63
2024-01-20T05:13:23.342Z,32.28
2024-01-20T05:15:54.763Z,35.58
2024-01-20T05:18:22.915Z,33.67
2024-01-20T05:20:50.739Z,34.00
2024-01-20T05:23:19.764Z,33.67
2024-01-20T05:25:47.787Z,34.72
2024-01-20T05:31:33.273Z,35.05
2024-01-20T05:34:01.352Z,35.40
2024-01-20T05:36:30.352Z,32.80
2024-01-20T05:38:58.814Z,37.10
2024-01-20T05:41:26.536Z,34.33
2024-01-20T05:43:55.098Z,37.00
2024-01-20T05:46:22.797Z,38.08
2024-01-20T05:48:53.041Z,37.70
2024-01-20T05:51:20.884Z,38.75
2024-01-20T05:53:48.581Z,36.97
2024-01-20T05:56:17.773Z,38.88
2024-01-20T05:58:45.568Z,36.92
2024-01-20T06:01:14.843Z,37.65
2024-01-20T06:03:42.803Z,36.45
2024-01-20T06:06:12.520Z,36.72
2024-01-20T06:08:40.937Z,33.45
2024-01-20T06:11:08.585Z,36.38
2024-01-20T06:13:36.821Z,35.77
2024-01-20T06:16:04.793Z,37.03
2024-01-20T06:18:32.915Z,36.20
2024-01-20T06:21:01.576Z,36.90
2024-01-20T06:23:30.739Z,38.78
2024-01-20T06:25:59.862Z,39.33
2024-01-20T06:28:27.590Z,38.13
2024-01-20T06:30:55.826Z,39.13
2024-01-20T06:33:23.676Z,36.70
2024-01-20T06:35:52.989Z,36.95
2024-01-20T06:38:21.028Z,39.17
2024-01-20T06:40:50.050Z,39.47
2024-01-20T06:43:17.865Z,39.58
2024-01-20T06:45:47.213Z,41.30
2024-01-20T06:48:14.991Z,38.97
2024-01-20T06:50:45.868Z,34.07
2024-01-20T06:53:13.589Z,37.55
2024-01-20T06:55:41.273Z,38.05
2024-01-20T06:58:10.456Z,39.92
2024-01-20T07:00:38.926Z,35.65
2024-01-20T07:03:06.755Z,38.40
2024-01-20T07:05:34.886Z,40.10
2024-01-20T07:08:03.153Z,40.47
2024-01-20T07:10:30.911Z,39.53
2024-01-20T07:12:58.568Z,40.75
2024-01-20T07:15:27.927Z,37.42
2024-01-20T07:17:57.122Z,38.10
2024-01-20T07:20:25.874Z,37.05
2024-01-20T07:22:53.621Z,39.50
2024-01-20T07:25:21.282Z,39.60
2024-01-20T07:27:49.901Z,39.58
2024-01-20T07:30:17.813Z,37.47
2024-01-20T07:32:47.907Z,38.08
2024-01-20T07:35:15.642Z,39.03
2024-01-20T07:37:44.063Z,36.22
2024-01-20T07:40:12.526Z,40.38
2024-01-20T07:42:42.092Z,42.38
2024-01-20T07:45:10.653Z,42.13
2024-01-20T07:47:38.419Z,42.17
2024-01-20T07:52:55.931Z,40.67
2024-01-20T07:55:23.621Z,43.17
2024-01-20T07:57:52.000Z,44.17
2024-01-20T08:00:20.377Z,41.17
2024-01-20T08:02:48.938Z,42.35
2024-01-20T08:05:16.812Z,43.42
2024-01-20T08:07:44.978Z,41.65
2024-01-20T08:10:14.429Z,43.70
2024-01-20T08:12:42.718Z,41.95
2024-01-20T08:15:11.948Z,41.50
2024-01-20T08:17:41.403Z,41.67
2024-01-20T08:20:11.746Z,42.53
2024-01-20T08:22:39.974Z,41.45
2024-01-20T08:25:09.534Z,42.58
2024-01-20T08:27:38.957Z,43.22
2024-01-20T08:30:07.989Z,42.03
2024-01-20T08:32:36.078Z,41.97
2024-01-20T08:35:03.959Z,39.95
2024-01-20T08:37:31.963Z,41.92
2024-01-20T08:39:59.667Z,43.90
2024-01-20T08:42:28.018Z,41.95
2024-01-20T08:44:57.159Z,41.70
2024-01-20T08:47:24.876Z,43.20
2024-01-20T08:49:53.976Z,40.08
2024-01-20T08:52:21.727Z,42.42
2024-01-20T08:54:49.443Z,37.63
2024-01-20T08:57:18.024Z,41.92
2024-01-20T08:59:45.686Z,41.08
2024-01-20T09:02:14.985Z,40.67
2024-01-20T09:04:42.681Z,40.77
2024-01-20T09:07:11.021Z,36.92
2024-01-20T09:09:38.803Z,38.55
2024-01-20T09:12:08.007Z,39.92
2024-01-20T09:14:37.539Z,40.05
2024-01-20T09:17:05.515Z,40.07
2024-01-20T09:19:35.168Z,38.20
2024-01-20T09:22:02.868Z,38.97
2024-01-20T09:24:30.536Z,38.47
2024-01-20T09:26:59.022Z,38.35
2024-01-20T09:29:26.725Z,38.13
2024-01-20T09:31:56.279Z,37.83
2024-01-20T09:34:24.040Z,37.08
2024-01-20T09:36:53.996Z,38.10
2024-01-20T09:39:21.761Z,37.70
2024-01-20T09:41:50.005Z,38.80
2024-01-20T09:44:17.750Z,32.60
2024-01-20T09:46:46.021Z,39.00
2024-01-20T09:49:13.861Z,36.97
2024-01-20T09:51:47.786Z,39.22
2024-01-20T09:54:18.061Z,36.97
2024-01-20T09:56:45.719Z,36.05
2024-01-20T09:59:15.155Z,37.13
2024-01-20T10:01:44.130Z,37.03
2024-01-20T10:04:11.996Z,36.63
2024-01-20T10:06:40.095Z,34.80
2024-01-20T10:09:07.866Z,33.83
2024-01-20T10:11:37.040Z,35.75
2024-01-20T10:14:05.027Z,34.58
2024-01-20T10:16:39.174Z,34.67
2024-01-20T10:19:07.038Z,35.05
2024-01-20T10:21:40.448Z,32.83
2024-01-20T10:24:09.087Z,36.55
2024-01-20T10:26:44.860Z,35.83
2024-01-20T10:29:12.522Z,32.58
2024-01-20T10:31:41.057Z,37.33
2024-01-20T10:34:08.951Z,35.45
2024-01-20T10:36:37.180Z,35.17
2024-01-20T10:39:07.010Z,36.33
2024-01-20T10:41:37.070Z,36.33
2024-01-20T10:44:07.446Z,36.55
2024-01-20T10:46:39.333Z,35.78
2024-01-20T10:49:10.511Z,34.13
2024-01-20T10:51:39.141Z,33.95
2024-01-20T10:54:10.124Z,31.85
2024-01-20T10:56:38.369Z,33.13
2024-01-20T10:59:13.614Z,32.47
2024-01-20T11:01:43.724Z,31.90
2024-01-20T11:04:12.202Z,32.80
2024-01-20T11:06:40.061Z,31.98
2024-01-20T11:09:09.141Z,31.43
2024-01-20T11:11:57.769Z,32.37
2024-01-20T11:14:31.125Z,29.88
2024-01-20T11:16:59.733Z,30.73
2024-01-20T11:19:31.285Z,28.67
2024-01-20T11:21:59.018Z,26.80
2024-01-20T11:24:40.401Z,25.38
2024-01-20T11:27:09.191Z,26.85
2024-01-20T11:29:38.407Z,26.83
2024-01-20T11:32:07.016Z,26.30
2024-01-20T11:34:35.229Z,25.90
2024-01-20T11:37:04.018Z,24.58
2024-01-20T11:39:32.181Z,24.23
2024-01-20T11:42:03.750Z,23.38
2024-01-20T11:44:32.532Z,22.37
2024-01-20T11:47:02.159Z,22.55
2024-01-20T11:49:29.884Z,22.27
2024-01-20T11:51:58.406Z,22.27
2024-01-20T11:54:26.179Z,20.88
2024-01-20T11:56:59.175Z,20.20
2024-01-20T11:59:27.310Z,20.15
2024-01-20T12:01:56.197Z,18.85
2024-01-20T12:04:25.716Z,18.42
2024-01-20T12:06:54.242Z,18.17
2024-01-20T12:09:22.067Z,19.05
2024-01-20T12:11:49.765Z,18.63
2024-01-20T12:14:19.198Z,17.95
2024-01-20T12:16:46.884Z,16.52
2024-01-20T12:19:15.268Z,16.10
2024-01-20T12:21:45.377Z,15.52
2024-01-20T12:24:14.256Z,15.73
2024-01-20T12:26:43.140Z,16.02
2024-01-20T12:29:10.794Z,15.40
2024-01-20T12:31:38.514Z,15.77
2024-01-20T12:34:06.291Z,15.40
2024-01-20T12:36:34.150Z,15.77
2024-01-20T12:39:04.231Z,15.13
2024-01-20T12:41:31.942Z,15.53
2024-01-20T12:44:00.233Z,14.15
2024-01-20T12:46:27.941Z,13.88
2024-01-20T12:48:56.274Z,15.15
2024-01-20T12:51:24.145Z,14.73
2024-01-20T12:53:51.819Z,13.57
2024-01-20T12:56:21.259Z,13.05
2024-01-20T12:58:48.925Z,14.57
2024-01-20T13:01:18.258Z,13.40
2024-01-20T13:03:46.167Z,12.73
2024-01-20T13:06:14.321Z,12.52
2024-01-20T13:08:41.982Z,13.02
2024-01-20T13:11:10.244Z,12.30
2024-01-20T13:13:41.598Z,11.93
2024-01-20T13:16:09.478Z,11.50
2024-01-20T13:18:37.393Z,10.90
2024-01-20T13:21:05.489Z,11.90
2024-01-20T13:23:33.161Z,11.03
2024-01-20T13:26:02.416Z,10.70
2024-01-20T13:28:31.891Z,10.82
2024-01-20T13:31:01.050Z,11.30
2024-01-20T13:33:29.395Z,10.25
2024-01-20T13:35:57.071Z,10.50
2024-01-20T13:38:25.303Z,10.18
2024-01-20T13:40:53.093Z,9.82
2024-01-20T13:43:21.284Z,10.23
2024-01-20T13:45:49.053Z,9.68
2024-01-20T13:48:18.579Z,9.43
2024-01-20T13:50:46.370Z,9.88
2024-01-20T13:53:14.296Z,9.90
2024-01-20T13:55:42.006Z,8.15
2024-01-20T13:58:10.030Z,9.50
2024-01-20T14:00:38.419Z,8.40
2024-01-20T14:03:06.525Z,9.30
2024-01-20T14:08:24.309Z,8.75
2024-01-20T14:10:52.160Z,8.63
2024-01-20T14:13:20.318Z,7.68
2024-01-20T14:15:48.176Z,7.80
2024-01-20T14:18:15.951Z,7.53
2024-01-20T14:23:30.330Z,7.68
2024-01-20T14:25:58.133Z,8.00
2024-01-20T14:28:26.479Z,7.65
2024-01-20T14:30:54.193Z,7.30
2024-01-20T14:33:22.502Z,6.78
2024-01-20T14:35:50.349Z,6.95
2024-01-20T14:38:18.368Z,6.97
2024-01-20T14:40:47.404Z,7.13
2024-01-20T14:43:15.350Z,6.53
2024-01-20T14:45:43.104Z,6.72
2024-01-20T14:48:12.541Z,6.72
2024-01-20T14:50:40.326Z,6.50
2024-01-20T14:53:08.373Z,6.80
2024-01-20T14:55:36.316Z,6.65
2024-01-20T14:58:06.373Z,6.88
2024-01-20T15:00:34.053Z,6.50
2024-01-20T15:03:02.481Z,6.63
2024-01-20T15:05:30.293Z,7.00
2024-01-20T15:07:58.398Z,6.57
2024-01-20T15:10:26.029Z,7.15
2024-01-20T15:12:54.418Z,6.82
2024-01-20T15:15:23.555Z,6.95
2024-01-20T15:17:51.442Z,6.85
2024-01-20T15:20:22.097Z,6.93
2024-01-20T15:22:51.397Z,6.63
2024-01-20T15:25:19.712Z,6.65
2024-01-20T15:27:49.579Z,7.07
2024-01-20T15:30:17.395Z,6.60
2024-01-20T15:32:46.543Z,7.00
2024-01-20T15:35:14.369Z,6.43
2024-01-20T15:37:42.037Z,6.50
2024-01-20T15:40:10.682Z,6.63
2024-01-20T15:42:38.492Z,5.85
2024-01-20T15:45:07.222Z,6.10
2024-01-20T15:47:34.922Z,6.38
2024-01-20T15:50:05.470Z,6.47
2024-01-20T15:52:33.260Z,5.63
2024-01-20T15:55:01.452Z,6.20
2024-01-20T15:57:29.132Z,5.43
2024-01-20T15:59:57.453Z,5.32
2024-01-20T16:02:25.715Z,5.40
2024-01-20T16:04:53.440Z,5.32
2024-01-20T16:07:22.697Z,5.17
2024-01-20T16:09:50.520Z,5.22
2024-01-20T16:12:18.319Z,5.33
2024-01-20T16:14:46.465Z,5.30
2024-01-20T16:17:14.151Z,5.57
2024-01-20T16:19:42.533Z,5.05
2024-01-20T16:22:10.220Z,5.75
2024-01-20T16:24:39.429Z,5.73
2024-01-20T16:27:07.475Z,6.32
2024-01-20T16:29:35.195Z,6.27
2024-01-20T16:32:03.316Z,6.75
2024-01-20T16:34:31.125Z,6.35
2024-01-20T16:36:59.495Z,6.15
2024-01-20T16:39:27.186Z,6.55
2024-01-20T16:41:56.935Z,6.50
2024-01-20T16:44:25.486Z,6.28
2024-01-20T16:46:53.847Z,6.47
2024-01-20T16:49:22.639Z,6.07
2024-01-20T16:51:50.439Z,5.93
2024-01-20T16:54:18.569Z,5.65
2024-01-20T16:56:46.268Z,6.38
2024-01-20T16:59:15.493Z,5.28
2024-01-20T17:01:43.188Z,5.35
2024-01-20T17:04:11.858Z,5.10
2024-01-20T17:06:39.654Z,5.20
2024-01-20T17:09:07.548Z,5.30
2024-01-20T17:11:35.237Z,5.37
2024-01-20T17:14:05.542Z,5.03
2024-01-20T17:16:35.247Z,5.25
2024-01-20T17:19:05.584Z,5.70
2024-01-20T17:21:34.380Z,6.30
2024-01-20T17:24:02.671Z,6.22
2024-01-20T17:26:31.119Z,6.22
2024-01-20T17:28:59.533Z,6.20
2024-01-20T17:31:29.793Z,5.73
2024-01-20T17:33:59.657Z,6.45
2024-01-20T17:36:27.407Z,5.82
2024-01-20T17:38:57.552Z,6.32
2024-01-20T17:41:25.261Z,5.88
2024-01-20T17:43:53.560Z,6.05
2024-01-20T17:46:21.190Z,6.45
2024-01-20T17:48:49.697Z,6.47
2024-01-20T17:51:18.936Z,6.50
2024-01-20T17:53:47.563Z,7.63
2024-01-20T17:56:15.346Z,7.72
2024-01-20T17:58:43.576Z,7.78
2024-01-20T18:01:18.835Z,7.53
2024-01-20T18:03:47.663Z,7.13
2024-01-20T18:06:16.382Z,7.90
2024-01-20T18:08:46.570Z,7.47
2024-01-20T18:11:14.305Z,8.25
2024-01-20T18:13:42.565Z,8.27
2024-01-20T18:16:10.305Z,8.37
2024-01-20T18:18:38.186Z,8.70
2024-01-20T18:21:06.643Z,8.80
2024-01-20T18:23:34.330Z,9.15
2024-01-20T18:26:03.326Z,8.73
2024-01-20T18:28:31.600Z,8.93
2024-01-20T18:31:00.682Z,8.90
2024-01-20T18:33:29.641Z,9.27
2024-01-20T18:35:57.475Z,10.00
2024-01-20T18:38:25.609Z,10.05
2024-01-20T18:40:53.301Z,9.52
2024-01-20T18:43:22.593Z,10.20
2024-01-20T18:45:50.233Z,10.27
2024-01-20T18:48:18.731Z,10.43
2024-01-20T18:50:46.747Z,9.85
2024-01-20T18:53:14.610Z,10.20
2024-01-20T18:55:42.384Z,10.25
2024-01-20T18:58:12.622Z,9.38
2024-01-20T19:00:42.109Z,9.17
2024-01-20T19:03:10.968Z,9.73
2024-01-20T19:05:39.377Z,10.23
2024-01-20T19:08:07.635Z,10.57
2024-01-20T19:10:35.242Z,9.93
2024-01-20T19:13:03.637Z,9.83
2024-01-20T19:15:31.555Z,9.75
2024-01-20T19:18:01.758Z,9.35
2024-01-20T19:20:30.216Z,9.02
2024-01-20T19:22:58.809Z,9.10
2024-01-20T19:25:26.955Z,8.67
2024-01-20T19:27:56.418Z,9.73
2024-01-20T19:30:25.379Z,9.30
2024-01-20T19:32:53.215Z,9.10
2024-01-20T19:35:23.677Z,8.87
2024-01-20T19:37:51.405Z,8.82
2024-01-20T19:40:19.409Z,8.57
2024-01-20T19:42:47.700Z,8.73
2024-01-20T19:45:38.459Z,9.00
2024-01-20T19:48:04.806Z,8.30
2024-01-20T19:50:33.985Z,8.93
2024-01-20T19:53:02.694Z,8.80
2024-01-20T19:55:30.568Z,8.25
2024-01-20T19:57:58.745Z,9.10
2024-01-20T20:00:26.506Z,9.00
2024-01-20T20:03:00.791Z,9.17
2024-01-20T20:05:28.491Z,9.75
2024-01-20T20:07:57.703Z,9.88
2024-01-20T20:10:28.163Z,9.65
2024-01-20T20:12:56.714Z,9.13
2024-01-20T20:15:24.525Z,9.55
2024-01-20T20:17:52.263Z,9.27
2024-01-20T20:20:24.717Z,9.38
2024-01-20T20:22:52.509Z,9.43
2024-01-20T20:25:21.726Z,8.45
2024-01-20T20:27:49.502Z,9.07
2024-01-20T20:30:17.921Z,9.35
2024-01-20T20:32:46.606Z,9.15
2024-01-20T20:35:15.744Z,8.05
2024-01-20T20:37:43.417Z,8.23
2024-01-20T20:40:12.737Z,8.90
2024-01-20T20:42:41.843Z,9.13
2024-01-20T20:45:10.757Z,9.60
2024-01-20T20:47:38.557Z,9.55
2024-01-20T20:50:07.884Z,8.68
2024-01-20T20:52:35.743Z,8.90
2024-01-20T20:55:03.427Z,9.10
2024-01-20T20:57:42.879Z,8.35
2024-01-20T21:00:15.981Z,8.73
2024-01-20T21:02:45.583Z,8.63
2024-01-20T21:05:18.060Z,7.93
2024-01-20T21:07:46.171Z,8.82
2024-01-20T21:10:15.554Z,8.68
2024-01-20T21:12:45.870Z,8.25
2024-01-20T21:15:14.130Z,8.05
2024-01-20T21:17:42.897Z,8.03
2024-01-20T21:20:11.735Z,9.02
2024-01-20T21:22:39.808Z,7.97
2024-01-20T21:25:08.993Z,8.82
2024-01-20T21:27:36.671Z,7.63
2024-01-20T21:30:06.811Z,8.25
2024-01-20T21:32:34.528Z,7.75
2024-01-20T21:35:02.908Z,8.55
2024-01-20T21:37:30.788Z,7.70
2024-01-20T21:39:58.805Z,7.53
2024-01-20T21:42:26.478Z,6.57
2024-01-20T21:44:57.949Z,6.77
2024-01-20T21:47:48.890Z,6.40
2024-01-20T21:50:16.693Z,6.07
2024-01-20T21:52:44.796Z,6.05
2024-01-20T21:55:12.480Z,5.85
2024-01-20T21:57:42.940Z,6.10
2024-01-20T22:00:11.484Z,6.18
2024-01-20T22:02:39.924Z,6.20
2024-01-20T22:05:09.472Z,6.05
2024-01-20T22:07:36.853Z,6.25
2024-01-20T22:10:06.000Z,6.28
2024-01-20T22:12:33.933Z,6.10
2024-01-20T22:15:01.835Z,6.10
2024-01-20T22:17:29.507Z,5.93
2024-01-20T22:19:57.726Z,6.22
2024-01-20T22:22:27.845Z,5.90
2024-01-20T22:24:55.552Z,6.57
2024-01-20T22:27:23.891Z,6.70
2024-01-20T22:29:51.574Z,5.72
2024-01-20T22:32:19.255Z,6.32
2024-01-20T22:34:47.926Z,5.93
2024-01-20T22:37:15.720Z,5.82
2024-01-20T22:39:44.943Z,6.10
2024-01-20T22:42:12.691Z,6.30
2024-01-20T22:44:40.326Z,6.20
2024-01-20T22:47:08.183Z,6.22
2024-01-20T22:49:36.920Z,5.70
2024-01-20T22:52:05.853Z,5.90
2024-01-20T22:54:34.897Z,6.00
2024-01-20T22:57:05.854Z,5.43
2024-01-20T22:59:33.888Z,5.55
2024-01-20T23:02:01.589Z,5.57
2024-01-20T23:04:29.647Z,5.38
2024-01-20T23:06:57.923Z,5.38
2024-01-20T23:09:27.393Z,5.10
2024-01-20T23:11:55.910Z,5.07
2024-01-20T23:14:25.242Z,4.97
2024-01-20T23:16:53.889Z,4.82
2024-01-20T23:19:21.635Z,5.40
2024-01-20T23:21:49.327Z,5.03
2024-01-20T23:24:17.975Z,5.05
2024-01-20T23:26:46.064Z,5.00
2024-01-20T23:29:13.710Z,5.15
2024-01-20T23:31:42.909Z,4.75
2024-01-20T23:34:11.273Z,4.80
2024-01-20T23:36:39.125Z,5.40
2024-01-20T23:39:16.954Z,4.88
2024-01-20T23:41:44.623Z,4.87
2024-01-20T23:44:12.319Z,5.50
2024-01-20T23:46:40.981Z,4.60
2024-01-20T23:49:11.631Z,5.10
2024-01-20T23:51:39.974Z,4.75
2024-01-20T23:54:07.720Z,4.70
2024-01-20T23:56:35.942Z,4.60
2024-01-20T23:59:04.027Z,4.63
